Tom Price, Western Australia

6:20 AM AWST on July 24, 2016 (GMT +0800)
Tom Price Weather Centre | | Change Station

Elev 2378 ft 22.69 °S, 117.79 °E | Updated 8 seconds ago

Overcast
Overcast
55.7 °F
Feels Like 55.7 °F
N
4.6
Wind Variable Wind from ENE
Gusts 4.6 mph

Today
High -- | Low -- °F
--% Chance of Precip.
Yesterday
High -- | Low -- °F
Precip. -- in
Pressure 30.12 in
Visibility 6.2 miles
Clouds Mostly Cloudy 7100 ft
Overcast 12500 ft
Dew Point 52 °F
Humidity 86%
Rainfall 0.00 in
Snow Depth Not available.
6:46 AM 5:44 PM
Waning Gibbous, 82% visible
METAR YPBO 232200Z AUTO 10008KT 9999 // BKN071 OVC125 14/10 Q1020
Pressure 30.12 in
Visibility 6.2 miles
Clouds Mostly Cloudy 7100 ft
Overcast 12500 ft
Dew Point 52 °F
Humidity 86%
Rainfall 0.00 in
Snow Depth Not available.
6:46 AM 5:44 PM
Waning Gibbous, 82% visible
METAR YPBO 232200Z AUTO 10008KT 9999 // BKN071 OVC125 14/10 Q1020

10-Day Weather Forecast

No radar image for this location.
×

Almanac

Astronomy

Jul. 24, 2016 Rise Set
Actual Time
Civil Twilight
Nautical Twilight
Astronomical Twilight
Moon
Length of Visible Light
Length of Day
Tomorrow will be .
, % of the Moon is Illuminated

Today's Extremes

Country Highs Country Lows

Community

WunderPhotos

Upload Photos

1,926,940 photos uploaded!

WunderBlog® & News

Nearby

Air Quality

  Air Quality AQ Index Pollutant
Not available.

Snow Depth

Station Depth Elevation

Earthquake Activity

City Distance Mag. Time & Date
Minimum magnitude displayed is 2.5.

Coastal Water Temperatures

Place Temperature

Stations

Nearby Weather Stations

Station Location Temp. Windchill Dew Point Humidity Wind Precip. Elev Updated Type